Time,TemperatureF,DewpointF,PressureIn,WindDirection,WindDirectionDegrees,WindSpeedMPH,WindSpeedGustMPH,Humidity,HourlyPrecipIn,Conditions,Clouds,dailyrainin,SolarRadiationWatts/m^2,SoftwareType,DateUTC
2013-08-17 00:10:00,57.0,56.0,30.19,West,264,0.0,-999.0,95,-99.99,,,0.00,0,weatherlink.com 1.10,2013-08-17 04:10:00,
2013-08-17 00:25:00,56.7,55.0,30.20,West,264,0.0,-999.0,95,-99.99,,,0.00,0,weatherlink.com 1.10,2013-08-17 04:25:00,
2013-08-17 00:40:00,56.3,55.0,30.20,West,264,0.0,-999.0,95,-99.99,,,0.00,0,weatherlink.com 1.10,2013-08-17 04:40:00,
2013-08-17 00:55:00,56.1,55.0,30.20,West,264,0.0,-999.0,95,-99.99,,,0.00,0,weatherlink.com 1.10,2013-08-17 04:55:00,
2013-08-17 01:10:00,56.0,55.0,30.20,West,264,0.0,-999.0,96,-99.99,,,0.00,0,weatherlink.com 1.10,2013-08-17 05:10:00,
2013-08-17 01:25:00,55.6,55.0,30.20,West,264,0.0,-999.0,96,-99.99,,,0.00,0,weatherlink.com 1.10,2013-08-17 05:25:00,
2013-08-17 01:40:00,55.3,54.0,30.20,West,264,0.0,-999.0,96,-99.99,,,0.00,0,weatherlink.com 1.10,2013-08-17 05:40:00,
2013-08-17 01:55:00,55.0,54.0,30.21,West,264,0.0,-999.0,96,-99.99,,,0.00,0,weatherlink.com 1.10,2013-08-17 05:55:00,
2013-08-17 02:10:00,54.7,54.0,30.20,West,264,0.0,-999.0,96,-99.99,,,0.00,0,weatherlink.com 1.10,2013-08-17 06:10:00,
2013-08-17 02:25:00,54.4,53.0,30.20,West,264,0.0,-999.0,96,-99.99,,,0.00,0,weatherlink.com 1.10,2013-08-17 06:25:00,
2013-08-17 02:40:00,54.3,53.0,30.21,West,264,0.0,-999.0,96,-99.99,,,0.00,0,weatherlink.com 1.10,2013-08-17 06:40:00,
2013-08-17 02:55:00,54.1,53.0,30.21,West,264,0.0,-999.0,96,-99.99,,,0.00,0,weatherlink.com 1.10,2013-08-17 06:55:00,
2013-08-17 03:10:00,53.8,53.0,30.21,West,264,0.0,-999.0,96,-99.99,,,0.00,0,weatherlink.com 1.10,2013-08-17 07:10:00,
2013-08-17 03:25:00,53.5,52.0,30.21,West,264,0.0,-999.0,96,-99.99,,,0.00,0,weatherlink.com 1.10,2013-08-17 07:25:00,
2013-08-17 03:40:00,53.3,52.0,30.21,West,264,0.0,-999.0,96,-99.99,,,0.00,0,weatherlink.com 1.10,2013-08-17 07:40:00,
2013-08-17 03:55:00,53.0,52.0,30.21,West,264,0.0,-999.0,96,-99.99,,,0.00,0,weatherlink.com 1.10,2013-08-17 07:55:00,
2013-08-17 04:10:00,52.9,52.0,30.22,West,264,0.0,-999.0,96,-99.99,,,0.00,0,weatherlink.com 1.10,2013-08-17 08:10:00,
2013-08-17 04:25:00,52.7,52.0,30.22,West,264,0.0,-999.0,96,-99.99,,,0.00,0,weatherlink.com 1.10,2013-08-17 08:25:00,
2013-08-17 04:41:00,52.9,52.0,30.22,West,264,0.0,-999.0,97,-99.99,,,0.00,0,weatherlink.com 1.10,2013-08-17 08:41:00,
2013-08-17 04:55:00,52.8,52.0,30.22,West,264,0.0,-999.0,97,-99.99,,,0.00,0,weatherlink.com 1.10,2013-08-17 08:55:00,
2013-08-17 05:10:00,53.1,52.0,30.22,West,264,0.0,-999.0,97,-99.99,,,0.00,0,weatherlink.com 1.10,2013-08-17 09:10:00,
2013-08-17 05:26:00,53.2,52.0,30.22,West,264,0.0,-999.0,97,-99.99,,,0.00,0,weatherlink.com 1.10,2013-08-17 09:26:00,
2013-08-17 05:41:00,53.0,52.0,30.22,West,264,0.0,-999.0,97,-99.99,,,0.00,0,weatherlink.com 1.10,2013-08-17 09:41:00,
2013-08-17 05:56:00,53.0,52.0,30.23,West,264,0.0,-999.0,97,-99.99,,,0.00,0,weatherlink.com 1.10,2013-08-17 09:56:00,
2013-08-17 06:11:00,53.2,52.0,30.23,West,264,0.0,-999.0,97,-99.99,,,0.00,5,weatherlink.com 1.10,2013-08-17 10:11:00,
2013-08-17 06:26:00,53.3,53.0,30.23,West,264,0.0,-999.0,97,-99.99,,,0.00,14,weatherlink.com 1.10,2013-08-17 10:26:00,
2013-08-17 06:41:00,53.5,53.0,30.23,West,264,0.0,-999.0,97,-99.99,,,0.00,33,weatherlink.com 1.10,2013-08-17 10:41:00,
2013-08-17 06:56:00,54.4,54.0,30.24,West,264,0.0,-999.0,98,-99.99,,,0.00,74,weatherlink.com 1.10,2013-08-17 10:56:00,
2013-08-17 07:11:00,55.5,55.0,30.25,West,264,0.0,-999.0,98,-99.99,,,0.00,95,weatherlink.com 1.10,2013-08-17 11:11:00,
2013-08-17 07:26:00,56.8,56.0,30.25,West,264,0.0,-999.0,97,-99.99,,,0.00,156,weatherlink.com 1.10,2013-08-17 11:26:00,
2013-08-17 07:41:00,58.3,58.0,30.25,West,264,0.0,-999.0,97,-99.99,,,0.00,188,weatherlink.com 1.10,2013-08-17 11:41:00,
2013-08-17 07:56:00,59.3,58.0,30.25,West,264,0.0,-999.0,96,-99.99,,,0.00,218,weatherlink.com 1.10,2013-08-17 11:56:00,
2013-08-17 08:11:00,60.7,59.0,30.26,West,264,0.0,-999.0,94,-99.99,,,0.00,292,weatherlink.com 1.10,2013-08-17 12:11:00,
2013-08-17 08:26:00,62.1,60.0,30.26,West,264,1.0,-999.0,91,-99.99,,,0.00,322,weatherlink.com 1.10,2013-08-17 12:26:00,
2013-08-17 08:41:00,63.7,61.0,30.25,West,264,1.0,-999.0,89,-99.99,,,0.00,432,weatherlink.com 1.10,2013-08-17 12:41:00,
2013-08-17 08:56:00,65.2,61.0,30.25,NNW,332,0.0,-999.0,85,-99.99,,,0.00,376,weatherlink.com 1.10,2013-08-17 12:56:00,
2013-08-17 09:11:00,66.7,61.0,30.25,NNW,338,0.0,-999.0,82,-99.99,,,0.00,478,weatherlink.com 1.10,2013-08-17 13:11:00,
2013-08-17 09:26:00,68.4,62.0,30.25,North,351,0.0,-999.0,80,-99.99,,,0.00,548,weatherlink.com 1.10,2013-08-17 13:26:00,
2013-08-17 09:41:00,69.1,62.0,30.26,North,351,0.0,-999.0,77,-99.99,,,0.00,406,weatherlink.com 1.10,2013-08-17 13:41:00,
2013-08-17 09:56:00,70.8,63.0,30.26,East,96,0.0,-999.0,75,-99.99,,,0.00,519,weatherlink.com 1.10,2013-08-17 13:56:00,
2013-08-17 10:11:00,71.6,63.0,30.26,East,95,0.0,-999.0,73,-99.99,,,0.00,619,weatherlink.com 1.10,2013-08-17 14:11:00,
2013-08-17 10:26:00,73.8,64.0,30.26,East,95,0.0,-999.0,71,-99.99,,,0.00,668,weatherlink.com 1.10,2013-08-17 14:26:00,
2013-08-17 10:41:00,75.3,63.0,30.26,East,90,1.0,-999.0,66,-99.99,,,0.00,580,weatherlink.com 1.10,2013-08-17 14:41:00,
2013-08-17 10:56:00,75.9,63.0,30.26,ENE,62,0.0,-999.0,65,-99.99,,,0.00,729,weatherlink.com 1.10,2013-08-17 14:56:00,
2013-08-17 11:11:00,76.0,61.0,30.26,North,355,0.0,-999.0,60,-99.99,,,0.00,766,weatherlink.com 1.10,2013-08-17 15:11:00,
2013-08-17 11:26:00,76.9,60.0,30.25,WNW,290,1.0,-999.0,57,-99.99,,,0.00,812,weatherlink.com 1.10,2013-08-17 15:26:00,
2013-08-17 11:41:00,77.5,58.0,30.25,SE,132,0.0,-999.0,52,-99.99,,,0.00,786,weatherlink.com 1.10,2013-08-17 15:41:00,
2013-08-17 11:56:00,78.0,61.0,30.25,SE,128,0.0,-999.0,56,-99.99,,,0.00,842,weatherlink.com 1.10,2013-08-17 15:56:00,
2013-08-17 12:11:00,78.4,59.0,30.25,SSW,212,0.0,-999.0,52,-99.99,,,0.00,967,weatherlink.com 1.10,2013-08-17 16:11:00,
2013-08-17 12:26:00,78.7,61.0,30.24,ESE,123,0.0,-999.0,54,-99.99,,,0.00,974,weatherlink.com 1.10,2013-08-17 16:26:00,
2013-08-17 12:41:00,78.2,59.0,30.24,NNW,341,0.0,-999.0,52,-99.99,,,0.00,230,weatherlink.com 1.10,2013-08-17 16:41:00,
2013-08-17 12:56:00,77.8,59.0,30.24,WNW,297,0.0,-999.0,52,-99.99,,,0.00,969,weatherlink.com 1.10,2013-08-17 16:56:00,
2013-08-17 13:11:00,79.1,58.0,30.23,South,175,0.0,-999.0,48,-99.99,,,0.00,977,weatherlink.com 1.10,2013-08-17 17:11:00,
2013-08-17 13:26:00,80.3,61.0,30.23,SSE,165,0.0,-999.0,52,-99.99,,,0.00,997,weatherlink.com 1.10,2013-08-17 17:26:00,
2013-08-17 13:41:00,79.7,59.0,30.24,SSE,162,0.0,-999.0,50,-99.99,,,0.00,962,weatherlink.com 1.10,2013-08-17 17:41:00,
2013-08-17 13:56:00,80.0,57.0,30.24,WNW,292,0.0,-999.0,45,-99.99,,,0.00,979,weatherlink.com 1.10,2013-08-17 17:56:00,
2013-08-17 14:11:00,80.9,58.0,30.23,West,278,0.0,-999.0,45,-99.99,,,0.00,967,weatherlink.com 1.10,2013-08-17 18:11:00,
2013-08-17 14:26:00,78.9,58.0,30.23,West,281,0.0,-999.0,49,-99.99,,,0.00,211,weatherlink.com 1.10,2013-08-17 18:26:00,
2013-08-17 14:41:00,79.2,58.0,30.22,WNW,292,0.0,-999.0,48,-99.99,,,0.00,701,weatherlink.com 1.10,2013-08-17 18:41:00,
2013-08-17 14:56:00,79.6,59.0,30.22,WNW,292,0.0,-999.0,49,-99.99,,,0.00,323,weatherlink.com 1.10,2013-08-17 18:56:00,
2013-08-17 15:11:00,79.7,59.0,30.22,WNW,292,0.0,-999.0,49,-99.99,,,0.00,719,weatherlink.com 1.10,2013-08-17 19:11:00,
2013-08-17 15:26:00,81.6,61.0,30.21,WNW,292,0.0,-999.0,50,-99.99,,,0.00,666,weatherlink.com 1.10,2013-08-17 19:26:00,
2013-08-17 15:41:00,79.6,59.0,30.21,NNE,28,0.0,-999.0,50,-99.99,,,0.00,738,weatherlink.com 1.10,2013-08-17 19:41:00,
2013-08-17 15:56:00,79.4,59.0,30.21,NE,36,0.0,-999.0,50,-99.99,,,0.00,731,weatherlink.com 1.10,2013-08-17 19:56:00,
2013-08-17 16:11:00,80.3,62.0,30.21,NW,304,0.0,-999.0,53,-99.99,,,0.00,631,weatherlink.com 1.10,2013-08-17 20:11:00,
2013-08-17 16:26:00,80.6,60.0,30.21,NW,323,0.0,-999.0,50,-99.99,,,0.00,536,weatherlink.com 1.10,2013-08-17 20:26:00,
2013-08-17 16:41:00,81.2,61.0,30.21,NW,323,0.0,-999.0,51,-99.99,,,0.00,522,weatherlink.com 1.10,2013-08-17 20:41:00,
2013-08-17 16:56:00,80.9,61.0,30.21,NW,324,0.0,-999.0,51,-99.99,,,0.00,396,weatherlink.com 1.10,2013-08-17 20:56:00,
2013-08-17 17:11:00,80.9,60.0,30.22,NW,324,0.0,-999.0,50,-99.99,,,0.00,322,weatherlink.com 1.10,2013-08-17 21:11:00,
2013-08-17 17:26:00,80.2,61.0,30.21,NW,324,0.0,-999.0,53,-99.99,,,0.00,251,weatherlink.com 1.10,2013-08-17 21:26:00,
2013-08-17 17:41:00,79.8,61.0,30.21,NW,324,0.0,-999.0,52,-99.99,,,0.00,218,weatherlink.com 1.10,2013-08-17 21:41:00,
2013-08-17 17:56:00,79.0,63.0,30.22,NW,324,0.0,-999.0,58,-99.99,,,0.00,186,weatherlink.com 1.10,2013-08-17 21:56:00,
2013-08-17 18:11:00,77.8,63.0,30.21,NW,324,0.0,-999.0,61,-99.99,,,0.00,134,weatherlink.com 1.10,2013-08-17 22:11:00,
2013-08-17 18:26:00,77.2,64.0,30.22,NW,324,0.0,-999.0,63,-99.99,,,0.00,116,weatherlink.com 1.10,2013-08-17 22:26:00,
2013-08-17 18:41:00,76.3,63.0,30.21,NW,324,0.0,-999.0,64,-99.99,,,0.00,81,weatherlink.com 1.10,2013-08-17 22:41:00,
2013-08-17 18:56:00,74.9,64.0,30.21,NW,324,0.0,-999.0,68,-99.99,,,0.00,56,weatherlink.com 1.10,2013-08-17 22:56:00,
2013-08-17 19:11:00,73.5,64.0,30.22,NW,324,0.0,-999.0,72,-99.99,,,0.00,32,weatherlink.com 1.10,2013-08-17 23:11:00,
2013-08-17 19:26:00,72.5,65.0,30.22,NW,324,0.0,-999.0,76,-99.99,,,0.00,16,weatherlink.com 1.10,2013-08-17 23:26:00,
2013-08-17 19:41:00,71.5,65.0,30.22,NW,324,0.0,-999.0,79,-99.99,,,0.00,0,weatherlink.com 1.10,2013-08-17 23:41:00,
2013-08-17 19:56:00,70.6,65.0,30.22,NW,324,0.0,-999.0,82,-99.99,,,0.00,0,weatherlink.com 1.10,2013-08-17 23:56:00,
2013-08-17 20:11:00,69.5,64.0,30.22,NW,324,0.0,-999.0,83,-99.99,,,0.00,0,weatherlink.com 1.10,2013-08-18 00:11:00,
2013-08-17 20:26:00,68.5,64.0,30.22,NW,323,0.0,-999.0,86,-99.99,,,0.00,0,weatherlink.com 1.10,2013-08-18 00:26:00,
2013-08-17 20:41:00,67.3,64.0,30.23,NW,324,0.0,-999.0,88,-99.99,,,0.00,0,weatherlink.com 1.10,2013-08-18 00:41:00,
2013-08-17 20:56:00,66.5,64.0,30.23,NW,324,0.0,-999.0,90,-99.99,,,0.00,0,weatherlink.com 1.10,2013-08-18 00:56:00,
2013-08-17 21:11:00,65.8,63.0,30.24,NW,324,0.0,-999.0,91,-99.99,,,0.00,0,weatherlink.com 1.10,2013-08-18 01:11:00,
2013-08-17 21:26:00,65.0,62.0,30.24,NW,324,0.0,-999.0,91,-99.99,,,0.00,0,weatherlink.com 1.10,2013-08-18 01:26:00,
2013-08-17 21:41:00,64.1,62.0,30.24,NW,324,0.0,-999.0,91,-99.99,,,0.00,0,weatherlink.com 1.10,2013-08-18 01:41:00,
2013-08-17 21:56:00,63.8,62.0,30.25,NW,324,0.0,-999.0,92,-99.99,,,0.00,0,weatherlink.com 1.10,2013-08-18 01:56:00,
2013-08-17 22:11:00,63.1,61.0,30.24,NW,324,0.0,-999.0,92,-99.99,,,0.00,0,weatherlink.com 1.10,2013-08-18 02:11:00,
2013-08-17 22:26:00,62.7,61.0,30.25,NW,324,0.0,-999.0,93,-99.99,,,0.00,0,weatherlink.com 1.10,2013-08-18 02:26:00,
2013-08-17 22:41:00,62.1,60.0,30.25,NW,324,0.0,-999.0,93,-99.99,,,0.00,0,weatherlink.com 1.10,2013-08-18 02:41:00,
2013-08-17 22:56:00,61.7,60.0,30.25,NW,324,0.0,-999.0,93,-99.99,,,0.00,0,weatherlink.com 1.10,2013-08-18 02:56:00,
2013-08-17 23:11:00,61.4,60.0,30.26,NW,324,0.0,-999.0,94,-99.99,,,0.00,0,weatherlink.com 1.10,2013-08-18 03:11:00,
2013-08-17 23:26:00,61.1,59.0,30.26,NW,324,0.0,-999.0,94,-99.99,,,0.00,0,weatherlink.com 1.10,2013-08-18 03:26:00,
2013-08-17 23:41:00,60.9,60.0,30.26,NW,324,0.0,-999.0,95,-99.99,,,0.00,0,weatherlink.com 1.10,2013-08-18 03:41:00,
2013-08-17 23:56:00,60.6,59.0,30.25,NW,324,0.0,-999.0,95,-99.99,,,0.00,0,weatherlink.com 1.10,2013-08-18 03:56:00,